createdAt,value
2022-07-29T00:03:08.058Z,19.63
2022-07-29T00:18:27.646Z,25.65
2022-07-29T00:27:48.724Z,26.55
2022-07-29T00:53:20.523Z,19.25
2022-07-29T00:55:08.674Z,12.82
2022-07-29T00:59:26.498Z,13.93
2022-07-29T01:09:10.395Z,10.70
2022-07-29T01:13:11.954Z,13.70
2022-07-29T01:17:21.423Z,14.80
2022-07-29T01:26:05.902Z,11.13
2022-07-29T01:34:44.277Z,9.27
2022-07-29T01:39:08.863Z,10.95
2022-07-29T01:43:20.566Z,9.75
2022-07-29T01:47:37.691Z,13.15
2022-07-29T01:52:00.452Z,10.63
2022-07-29T01:56:14.608Z,11.88
2022-07-29T02:00:19.359Z,11.43
2022-07-29T02:04:49.955Z,10.63
2022-07-29T02:09:01.196Z,12.63
2022-07-29T02:13:09.693Z,16.35
2022-07-29T02:17:15.076Z,11.98
2022-07-29T02:21:33.947Z,13.60
2022-07-29T02:25:38.888Z,12.05
2022-07-29T02:29:57.755Z,12.70
2022-07-29T02:34:19.058Z,14.13
2022-07-29T02:38:50.651Z,16.48
2022-07-29T02:42:55.897Z,13.82
2022-07-29T02:47:41.468Z,16.92
2022-07-29T02:51:58.921Z,17.50
2022-07-29T03:02:21.538Z,16.00
2022-07-29T03:06:52.279Z,17.45
2022-07-29T03:11:09.001Z,18.50
2022-07-29T03:15:34.211Z,15.15
2022-07-29T03:19:55.432Z,14.50
2022-07-29T03:24:10.475Z,13.93
2022-07-29T03:28:19.192Z,13.75
2022-07-29T03:33:35.774Z,12.93
2022-07-29T03:43:20.478Z,21.40
2022-07-29T03:47:50.391Z,19.83
2022-07-29T03:52:12.971Z,16.58
2022-07-29T03:56:46.178Z,17.73
2022-07-29T04:01:11.090Z,20.40
2022-07-29T04:05:16.432Z,16.40
2022-07-29T04:09:25.059Z,12.38
2022-07-29T04:13:39.224Z,10.15
2022-07-29T04:17:41.505Z,9.82
2022-07-29T04:21:47.070Z,12.40
2022-07-29T04:25:49.040Z,11.60
2022-07-29T04:35:38.079Z,9.82
2022-07-29T05:17:50.943Z,9.60
2022-07-29T05:59:15.546Z,10.45
2022-07-29T06:06:10.750Z,9.27
2022-07-29T06:39:49.053Z,28.45
2022-07-29T07:03:27.823Z,6.25
2022-07-29T07:04:06.532Z,18.73
2022-07-29T07:15:19.398Z,8.00
2022-07-29T07:21:07.164Z,5.28
2022-07-29T07:37:46.282Z,16.10
2022-07-29T07:42:35.270Z,28.02
2022-07-29T07:52:30.417Z,3.75
2022-07-29T07:57:05.367Z,5.18
2022-07-29T08:02:24.060Z,3.92
2022-07-29T08:06:55.504Z,6.40
2022-07-29T08:11:52.293Z,16.23
2022-07-29T08:16:16.690Z,2.67
2022-07-29T08:21:23.546Z,3.30
2022-07-29T08:26:17.960Z,2.25
2022-07-29T08:30:26.273Z,13.23
2022-07-29T08:35:25.389Z,7.22
2022-07-29T08:39:40.773Z,4.30
2022-07-29T08:46:01.761Z,3.60
2022-07-29T08:50:03.886Z,2.75
2022-07-29T08:54:58.389Z,3.13
2022-07-29T08:59:49.524Z,2.70
2022-07-29T09:04:32.862Z,9.23
2022-07-29T09:14:57.309Z,4.95
2022-07-29T09:25:19.497Z,4.45
2022-07-29T09:29:36.507Z,4.25
2022-07-29T10:03:24.437Z,6.70
2022-07-29T10:19:14.240Z,3.42
2022-07-29T10:30:50.977Z,4.78
2022-07-29T10:42:16.984Z,6.30
2022-07-29T11:55:50.874Z,3.78
2022-07-29T13:00:25.085Z,2.92
2022-07-29T13:04:29.413Z,10.57
2022-07-29T13:08:29.365Z,2.85
2022-07-29T13:12:31.030Z,8.80
2022-07-29T13:16:38.905Z,3.83
2022-07-29T13:20:40.648Z,2.65
2022-07-29T13:24:54.010Z,2.85
2022-07-29T13:28:53.579Z,2.83
2022-07-29T13:32:56.379Z,5.55
2022-07-29T13:36:56.385Z,3.75
2022-07-29T13:40:56.318Z,5.10
2022-07-29T13:44:56.445Z,4.60
2022-07-29T13:49:00.565Z,5.20
2022-07-29T13:53:00.510Z,3.80
2022-07-29T13:57:17.374Z,3.05
2022-07-29T14:02:33.118Z,3.92
2022-07-29T14:06:47.684Z,5.50
2022-07-29T14:10:48.911Z,6.47
2022-07-29T14:14:52.632Z,3.08
2022-07-29T14:18:55.491Z,4.38
2022-07-29T14:22:57.560Z,7.38
2022-07-29T14:27:06.059Z,3.78
2022-07-29T14:31:06.462Z,4.85
2022-07-29T14:35:19.463Z,5.93
2022-07-29T14:39:31.904Z,4.30
2022-07-29T14:43:45.492Z,5.20
2022-07-29T14:47:50.928Z,6.65
2022-07-29T14:51:56.961Z,5.03
2022-07-29T14:56:10.349Z,6.47
2022-07-29T15:00:22.210Z,6.50
2022-07-29T15:04:22.219Z,3.50
2022-07-29T15:08:22.238Z,4.25
2022-07-29T15:12:24.918Z,3.17
2022-07-29T16:37:00.503Z,6.55
2022-07-29T16:42:08.003Z,7.78
2022-07-29T16:53:02.636Z,12.68
2022-07-29T17:03:01.585Z,13.20
2022-07-29T17:13:24.698Z,12.95
2022-07-29T17:18:53.608Z,14.32
2022-07-29T17:24:35.967Z,11.57
2022-07-29T18:02:42.303Z,13.68
2022-07-29T20:29:31.313Z,5.47
2022-07-29T20:33:42.491Z,6.55
2022-07-29T20:37:55.863Z,5.40
2022-07-29T20:42:01.605Z,3.85
2022-07-29T20:46:14.103Z,4.82
2022-07-29T20:50:15.580Z,5.50
2022-07-29T20:54:25.023Z,4.28
2022-07-29T20:58:27.015Z,4.90
2022-07-29T21:02:30.942Z,7.05
2022-07-29T21:06:32.274Z,5.10
2022-07-29T21:11:03.137Z,4.38
2022-07-29T21:15:13.097Z,3.97
2022-07-29T21:20:02.275Z,7.63
2022-07-29T22:16:23.714Z,9.90
2022-07-29T22:21:20.328Z,10.23
2022-07-29T23:19:04.737Z,9.50
2022-07-29T23:56:21.477Z,9.88
